Accueil
METAR-TAF:

METAR-TAF

Aéroports :

Sabadell, Espagne

latitude: 41-31N, longitude: 002-06E, altitude: 250 m

Observation

Le bulletin a été fait il y a 33 minutes, à 22:30 UTC
Vent 2 kt de ouest
Température 22°C
Humidité 88%
Pression 1021 hPa
Visibilité 10 km ou plus

METAR: LELL 202230Z AUTO 28002KT 9999 NCD 22/20 Q1021

Heure: 01:03 (23:03 UTC)

Prévision

Le bulletin a été fait il y a 9 heures et 3 minutes, à 14:00 UTC
Prévision valable du 20 à 15 UTC au 21 à 15 UTC
Vent 10 kt de sud
Visibilité 10 km ou plus
Quelques nuages à une hauteur de 3000 ft
Evoluant progressivement
du 20 à 18 UTC au 20 à 21 UTC
Vent 3 kt de direction variable
Evoluant progressivement
du 21 à 11 UTC au 21 à 13 UTC
Vent 10 kt de sud

TAF: LELL 201400Z 2015/2115 17010KT 9999 FEW030 TX31/2113Z TN18/2105Z BECMG 2018/2021 VRB03KT BECMG 2111/2113 18010KT

Observations et prévisions météorologiques de plus de 4000 aéroports (messages METAR et TAF).

Les stations disponibles sont représentées par des disques jaunes et rouges sur la carte.

Passer la souris dessus pour voir le nom de la station.

Cliquer dessus pour voir les observations et prévisions météorologiques.

Pour changer de carte: cliquez sur les boutons verts avec une croix noire pour zoomer, sur le bouton vert avec un tiret pour effectuer un zoom arrière, ou sur les flèches vertes pour les cartes adjacentes.


METAR-TAF: